KROX/ROX METAR and TAF weather

Enter ICAO airport designator
Station Type Date Time Source
KROX METAR 2022/01/26 14:55 UTC NOAA

KROX 261455Z AUTO 21025G31KT 1 1/2SM -SN M11/M13 A2957 RMK AO2


Station Type Date Time Source
KROX Decoded METAR 2022/01/26 14:55 UTC NOAA

Roseau, Roseau Municipal Airport/Rudy Billberg Field, MN, United States (KROX) 48-51N 095-42W
Jan 26, 2022 - 09:55 AM EST / 2022.01.26 1455 UTC
Wind: from the SSW (210 degrees) at 29 MPH (25 KT) gusting to 36 MPH (31 KT):0
Visibility: 1 1/2 mile(s):0
Weather: light snow
Temperature: 12 F (-11 C)
Windchill: -9 F (-23 C):2
Dew Point: 8 F (-13 C)
Relative Humidity: 85%
Pressure (altimeter): 29.57 in. Hg (1001 hPa)
ob: KROX 261455Z AUTO 21025G31KT 1 1/2SM -SN M11/M13 A2957 RMK AO2
cycle: 15

Station Type Date Time Source
KROX TAF UTC NOAA

Error!

Example: see airport list